19°C Temp
9°C Dewpoint
% Humidity
Temperature
14 KM/H
9 MPH
8 KTS
310°
North West

Wind Speed
Partly Cloudy
Conditions
Pressure 1021.92 (hPa) - 30.18 (in)
Visibility 6.2 (mi) - 10.0 (km)

Current Conditions
EGKA
Location 9(mi)
Metar :EGKA 061650Z 31008KT 9999 FEW046 19/09 Q1022
Mon 6th July 16:50 pm

Airport
  Metar Aviation API Data Provided by https://www.checkwx.com/ PHP scripts by weather34.com ©2020